ADDS METAR Data INFO
IDs: Format: Raw Decoded Include TAF

Data at: 0147 UTC 18 Oct 2017

KCPU 180135Z AUTO 32008KT 10SM CLR 23/M02 A3006 RMK AO2 T02271016